PN73 weather

Beers Farm Airport
Orbisona/Rockhill, Pennsylvania, United States

Public forecast

Using degrees Fahrenheit for public forecast. Weather courtesy of forecast.io.

Closest aviation weather report (METAR) to Beers Farm Airport

Closest report is Altoona Blair County Airport, 18.7 nm (34.7 km) WNW. Retrieved 2020/06/05 20:53 UTC (13 minutes ago):

KAOO 052053Z AUTO 00000KT 10SM FEW029 OVC090 26/19 A2989 RMK AO2 SLP110 T02610194 56016

Closest aviation forecast (TAF) to Beers Farm Airport

Closest forecast is Altoona Blair County Airport, 18.7 nm (34.7 km) WNW. Retrieved 2020/06/05 18:52 UTC (2 hours ago):

TAF KAOO 051740Z 0518/0618 21007KT 4SM HZ SCT050 BKN120 FM051900 22006KT 6SM HZ BKN045 BKN150 TEMPO 0519/0522 3SM TSRA BR OVC025CB FM060000 21005KT P6SM SCT045 BKN100 FM061100 27008KT P6SM SCT025 BKN060